Time;durP1;ratioP1;P1;durP2;ratioP2;P2;SDS_P1;SDS_P2;PMS_P1;PMS_P2;Temp;Humidity;BMP_temperature;BMP_pressure;BME280_temperature;BME280_humidity;BME280_pressure;Samples;Min_cycle;Max_cycle;Signal;HPM_P1;HPM_P2
2022/09/18 00:01:37;;;;;;;1.48;1.38;;;9.60;99.90;;;;;;5052549;28;20212;-88
2022/09/18 00:04:07;;;;;;;0.88;0.65;;;9.60;99.90;;;;;;5052379;28;20212;-89
2022/09/18 00:06:38;;;;;;;1.00;1.00;;;9.70;99.90;;;;;;5052327;28;20205;-89
2022/09/18 00:09:09;;;;;;;0.82;0.82;;;9.70;99.90;;;;;;5051888;28;20225;-88
2022/09/18 00:11:39;;;;;;;0.80;0.80;;;9.70;99.90;;;;;;5053208;28;20284;-88
2022/09/18 00:14:12;;;;;;;0.70;0.65;;;9.70;99.90;;;;;;5053084;28;20202;-88
2022/09/18 00:16:41;;;;;;;0.60;0.60;;;9.70;99.90;;;;;;5052569;28;20216;-90
2022/09/18 00:19:10;;;;;;;0.65;0.65;;;9.70;99.90;;;;;;5052229;28;20218;-88
2022/09/18 00:21:40;;;;;;;0.80;0.80;;;9.70;99.90;;;;;;5052166;28;20202;-89
2022/09/18 00:24:09;;;;;;;1.33;1.20;;;9.80;99.90;;;;;;5052220;28;20202;-88
2022/09/18 00:26:37;;;;;;;0.85;0.85;;;9.70;99.90;;;;;;5052283;28;20202;-88
2022/09/18 00:29:06;;;;;;;1.00;1.00;;;9.70;99.90;;;;;;5051940;28;20251;-88
2022/09/18 00:31:36;;;;;;;0.68;0.68;;;9.70;99.90;;;;;;5052392;28;20212;-89
2022/09/18 00:34:06;;;;;;;1.63;1.13;;;9.70;99.90;;;;;;5052463;28;20206;-89
2022/09/18 00:36:35;;;;;;;1.17;1.00;;;9.70;99.90;;;;;;5051633;28;20231;-89
2022/09/18 00:39:04;;;;;;;0.90;0.88;;;9.70;99.90;;;;;;5052010;28;20222;-88
2022/09/18 00:41:35;;;;;;;0.95;0.82;;;9.70;99.90;;;;;;5052021;28;20206;-89
2022/09/18 00:44:38;;;;;;;1.05;1.02;;;9.70;99.90;;;;;;5052040;28;20194;-89
2022/09/18 00:47:24;;;;;;;1.10;1.00;;;9.70;99.90;;;;;;4990817;28;20211;-88
2022/09/18 00:50:00;;;;;;;1.50;1.40;;;9.70;99.90;;;;;;4990021;28;20420;-89
2022/09/18 00:52:33;;;;;;;1.13;1.05;;;9.70;99.90;;;;;;5033239;28;20197;-88
2022/09/18 00:55:07;;;;;;;0.85;0.85;;;9.70;99.90;;;;;;5055751;28;20224;-89
2022/09/18 00:57:40;;;;;;;0.90;0.90;;;9.70;99.90;;;;;;5055556;28;20224;-89
2022/09/18 01:00:13;;;;;;;1.40;1.30;;;9.70;99.90;;;;;;5055045;28;20225;-89
2022/09/18 01:02:44;;;;;;;1.08;1.08;;;9.70;99.90;;;;;;5055500;28;20261;-89
2022/09/18 01:05:14;;;;;;;1.15;1.08;;;9.70;99.90;;;;;;5055679;28;20213;-89
2022/09/18 01:07:56;;;;;;;3.28;1.52;;;9.70;99.90;;;;;;5055258;28;20213;-89
2022/09/18 01:10:37;;;;;;;1.63;1.52;;;9.70;99.90;;;;;;5055219;28;20210;-89
2022/09/18 01:13:13;;;;;;;1.10;1.10;;;9.60;99.90;;;;;;5054757;28;20213;-89
2022/09/18 01:15:50;;;;;;;1.50;1.40;;;9.60;99.90;;;;;;5055119;28;20218;-89
2022/09/18 01:18:29;;;;;;;1.05;1.05;;;9.60;99.90;;;;;;5055357;28;20229;-89
2022/09/18 01:21:07;;;;;;;1.45;1.35;;;9.70;99.90;;;;;;5055476;28;20205;-89
2022/09/18 01:24:06;;;;;;;1.52;1.33;;;9.70;99.90;;;;;;5055267;28;20216;-89
2022/09/18 01:26:52;;;;;;;0.80;0.80;;;9.70;99.90;;;;;;5054787;28;20204;-89
2022/09/18 01:29:33;;;;;;;0.80;0.80;;;9.70;99.90;;;;;;5054645;28;20245;-89
2022/09/18 01:32:08;;;;;;;0.73;0.73;;;9.80;99.90;;;;;;5055017;28;20275;-89
2022/09/18 01:34:44;;;;;;;0.80;0.80;;;9.80;99.90;;;;;;5054741;28;20205;-89
2022/09/18 01:37:21;;;;;;;0.75;0.75;;;9.90;99.90;;;;;;5054413;28;20217;-89
2022/09/18 01:39:56;;;;;;;1.27;1.17;;;9.90;99.90;;;;;;5054856;28;20237;-89
2022/09/18 01:42:28;;;;;;;1.75;1.40;;;9.90;99.90;;;;;;5054819;28;20205;-89
2022/09/18 01:45:04;;;;;;;1.20;0.88;;;10.00;99.90;;;;;;5054501;28;20209;-89
2022/09/18 01:47:39;;;;;;;0.85;0.77;;;10.00;99.90;;;;;;5054829;28;20216;-89
2022/09/18 01:50:09;;;;;;;0.82;0.82;;;10.00;99.90;;;;;;5054339;28;20233;-89
2022/09/18 01:52:42;;;;;;;1.23;0.80;;;10.00;99.90;;;;;;5054512;28;20217;-89
2022/09/18 01:55:15;;;;;;;0.90;0.90;;;10.00;99.90;;;;;;5054512;28;20209;-89
2022/09/18 01:57:49;;;;;;;0.90;0.90;;;10.00;99.90;;;;;;5054498;28;20217;-89
2022/09/18 02:00:19;;;;;;;0.57;0.57;;;10.00;99.90;;;;;;5054149;28;20341;-89
2022/09/18 02:02:52;;;;;;;0.68;0.68;;;10.00;99.90;;;;;;5052951;28;20205;-89
2022/09/18 02:05:26;;;;;;;0.85;0.85;;;10.00;99.90;;;;;;5054179;28;20212;-89
2022/09/18 02:08:02;;;;;;;0.55;0.55;;;10.10;99.90;;;;;;5054281;28;20217;-89
2022/09/18 02:10:37;;;;;;;0.70;0.70;;;10.10;99.90;;;;;;5053954;28;20213;-89
2022/09/18 02:13:08;;;;;;;0.98;0.93;;;10.10;99.90;;;;;;5054135;28;20216;-89
2022/09/18 02:15:40;;;;;;;0.70;0.70;;;10.00;99.90;;;;;;5053987;28;20218;-89
2022/09/18 02:18:13;;;;;;;0.77;0.77;;;10.00;99.90;;;;;;5053973;28;20245;-89
2022/09/18 02:20:44;;;;;;;0.80;0.80;;;10.00;99.90;;;;;;5053714;28;20202;-89
2022/09/18 02:23:13;;;;;;;0.57;0.57;;;10.00;99.90;;;;;;5054185;28;20217;-89
2022/09/18 02:25:44;;;;;;;0.52;0.52;;;10.00;99.90;;;;;;5053990;28;20205;-88
2022/09/18 02:28:16;;;;;;;0.60;0.60;;;9.90;99.90;;;;;;5053841;28;20244;-89
2022/09/18 02:30:46;;;;;;;0.73;0.73;;;9.90;99.90;;;;;;5053251;28;20224;-88
2022/09/18 02:33:25;;;;;;;2.53;0.80;;;9.90;99.90;;;;;;5053420;28;20208;-88
2022/09/18 02:36:13;;;;;;;0.55;0.50;;;9.90;99.90;;;;;;5053501;28;20232;-89
2022/09/18 02:38:49;;;;;;;0.85;0.85;;;9.90;99.90;;;;;;5053454;28;20236;-89
2022/09/18 02:41:28;;;;;;;0.85;0.85;;;9.90;99.90;;;;;;5053749;28;20209;-89
2022/09/18 02:44:01;;;;;;;0.60;0.60;;;9.90;99.90;;;;;;5053524;28;20213;-88
2022/09/18 02:46:42;;;;;;;3.60;1.08;;;9.90;99.90;;;;;;5053701;28;20204;-89
2022/09/18 02:49:14;;;;;;;0.93;0.90;;;9.90;99.90;;;;;;5052712;28;20224;-89
2022/09/18 02:51:50;;;;;;;1.42;1.00;;;9.90;99.90;;;;;;5053658;28;20216;-89
2022/09/18 02:54:25;;;;;;;0.57;0.57;;;10.00;99.90;;;;;;5053699;28;20211;-89
2022/09/18 02:56:57;;;;;;;0.85;0.85;;;10.00;99.90;;;;;;5053054;28;20225;-89
2022/09/18 02:59:30;;;;;;;0.88;0.73;;;10.00;99.90;;;;;;5053232;28;20233;-89
2022/09/18 03:02:00;;;;;;;1.33;0.82;;;9.90;99.90;;;;;;5053119;28;20225;-89
2022/09/18 03:04:29;;;;;;;0.38;0.38;;;9.90;99.90;;;;;;5053303;28;20216;-89
2022/09/18 03:06:57;;;;;;;0.80;0.80;;;9.90;99.90;;;;;;5052931;28;20201;-89
2022/09/18 03:09:26;;;;;;;1.33;1.15;;;9.80;99.90;;;;;;5052954;28;20276;-89
2022/09/18 03:11:54;;;;;;;1.20;1.10;;;9.80;99.90;;;;;;5053006;28;20205;-89
2022/09/18 03:14:23;;;;;;;1.55;1.23;;;9.80;99.90;;;;;;5052343;28;20213;-89
2022/09/18 03:16:51;;;;;;;1.52;1.42;;;9.80;99.90;;;;;;5053337;28;20229;-89
2022/09/18 03:19:21;;;;;;;1.80;1.40;;;9.80;99.90;;;;;;5054381;28;20236;-89
2022/09/18 03:21:50;;;;;;;0.70;0.70;;;9.70;99.90;;;;;;5054653;28;20202;-89
2022/09/18 03:24:18;;;;;;;1.63;1.10;;;9.70;99.90;;;;;;5054398;28;20261;-89
2022/09/18 03:26:47;;;;;;;0.60;0.60;;;9.60;99.90;;;;;;5053474;28;20202;-89
2022/09/18 03:29:15;;;;;;;0.70;0.70;;;9.50;99.90;;;;;;5052552;28;20234;-89
2022/09/18 03:31:43;;;;;;;1.00;1.00;;;9.60;99.90;;;;;;5053071;28;20209;-89
2022/09/18 03:34:12;;;;;;;0.82;0.82;;;9.50;99.90;;;;;;5052573;28;20209;-89
2022/09/18 03:36:41;;;;;;;0.50;0.50;;;9.50;99.90;;;;;;5052473;28;20230;-89
2022/09/18 03:39:09;;;;;;;0.93;0.90;;;9.50;99.90;;;;;;5052467;28;20233;-90
2022/09/18 03:41:37;;;;;;;6.40;0.93;;;9.50;99.90;;;;;;5052571;28;20201;-89
2022/09/18 03:44:06;;;;;;;0.82;0.82;;;9.40;99.90;;;;;;5052705;28;20217;-89
2022/09/18 03:46:34;;;;;;;1.00;0.90;;;9.40;99.90;;;;;;5052841;28;20197;-89
2022/09/18 03:49:02;;;;;;;3.45;1.40;;;9.40;99.90;;;;;;5052390;28;20226;-89
2022/09/18 03:51:30;;;;;;;1.52;0.82;;;9.40;99.90;;;;;;5052560;28;20213;-89
2022/09/18 03:54:00;;;;;;;1.08;0.98;;;9.40;99.90;;;;;;5052956;28;20206;-89
2022/09/18 03:56:28;;;;;;;0.65;0.65;;;9.40;99.90;;;;;;5052397;28;20222;-89
2022/09/18 03:58:57;;;;;;;0.70;0.70;;;9.40;99.90;;;;;;5052139;28;20230;-89
2022/09/18 04:01:25;;;;;;;1.10;0.93;;;9.40;99.90;;;;;;5052502;28;20213;-89
2022/09/18 04:03:54;;;;;;;0.47;0.47;;;9.40;99.90;;;;;;5052239;28;20209;-89
2022/09/18 04:06:23;;;;;;;0.60;0.60;;;9.50;99.90;;;;;;5052473;28;20206;-89
2022/09/18 04:08:52;;;;;;;0.63;0.63;;;9.50;99.90;;;;;;5052151;28;20226;-89
2022/09/18 04:11:21;;;;;;;1.08;0.98;;;9.50;99.90;;;;;;5052573;28;20240;-89
2022/09/18 04:13:49;;;;;;;1.23;1.13;;;9.40;99.90;;;;;;5052215;28;20206;-89
2022/09/18 04:16:18;;;;;;;0.90;0.75;;;9.40;99.90;;;;;;5052129;28;20229;-89
2022/09/18 04:18:47;;;;;;;0.90;0.90;;;9.40;99.90;;;;;;5051869;28;20226;-89
2022/09/18 04:21:15;;;;;;;1.10;0.95;;;9.40;99.90;;;;;;5052624;28;20209;-89
2022/09/18 04:23:43;;;;;;;0.80;0.50;;;9.40;99.90;;;;;;5052419;28;20209;-89
2022/09/18 04:26:11;;;;;;;1.95;1.10;;;9.40;99.90;;;;;;5053519;28;20202;-89
2022/09/18 04:28:41;;;;;;;1.23;1.05;;;9.40;99.90;;;;;;5055745;28;20233;-89
2022/09/18 04:31:09;;;;;;;1.00;0.70;;;9.40;99.90;;;;;;5055734;28;20201;-89
2022/09/18 04:33:38;;;;;;;0.57;0.57;;;9.40;99.90;;;;;;5055876;28;20259;-89
2022/09/18 04:36:06;;;;;;;0.82;0.82;;;9.40;99.90;;;;;;5056091;28;20208;-89
2022/09/18 04:38:35;;;;;;;1.30;0.80;;;9.40;99.90;;;;;;5055420;28;20241;-89
2022/09/18 04:41:03;;;;;;;1.65;1.10;;;9.30;99.90;;;;;;5056113;28;20213;-89
2022/09/18 04:43:31;;;;;;;1.13;1.02;;;9.30;99.90;;;;;;5055618;28;20220;-89
2022/09/18 04:46:01;;;;;;;0.70;0.70;;;9.40;99.90;;;;;;5055789;28;20210;-89
2022/09/18 04:48:29;;;;;;;0.60;0.60;;;9.40;99.90;;;;;;5055514;28;20222;-89
2022/09/18 04:50:57;;;;;;;0.98;0.95;;;9.40;99.90;;;;;;5055798;28;20213;-89
2022/09/18 04:53:27;;;;;;;0.70;0.70;;;9.40;99.90;;;;;;5055984;28;20202;-89
2022/09/18 04:55:55;;;;;;;1.00;1.00;;;9.50;99.90;;;;;;5055471;28;20212;-89
2022/09/18 04:58:23;;;;;;;0.73;0.73;;;9.60;99.90;;;;;;5054873;28;20233;-89
2022/09/18 05:00:51;;;;;;;1.20;1.10;;;9.60;99.90;;;;;;5055566;28;20216;-89
2022/09/18 05:03:21;;;;;;;0.70;0.70;;;9.70;99.90;;;;;;5055256;28;20260;-89
2022/09/18 05:05:50;;;;;;;3.10;1.10;;;9.70;99.90;;;;;;5055174;28;20237;-89
2022/09/18 05:08:18;;;;;;;1.80;1.27;;;9.70;99.90;;;;;;5055072;28;20230;-89
2022/09/18 05:10:46;;;;;;;1.60;1.20;;;9.80;99.90;;;;;;5055025;28;20216;-89
2022/09/18 05:13:14;;;;;;;0.65;0.60;;;9.80;99.90;;;;;;5055013;28;20214;-89
2022/09/18 05:15:43;;;;;;;3.03;1.00;;;9.80;99.90;;;;;;5055109;28;20208;-89
2022/09/18 05:18:12;;;;;;;0.70;0.70;;;9.80;99.90;;;;;;5054977;28;20229;-89
2022/09/18 05:20:42;;;;;;;0.60;0.60;;;9.80;99.90;;;;;;5054826;28;20294;-89
2022/09/18 05:23:10;;;;;;;1.85;1.08;;;9.80;99.90;;;;;;5055124;28;20202;-89
2022/09/18 05:25:38;;;;;;;0.75;0.68;;;9.90;99.90;;;;;;5055255;28;20208;-89
2022/09/18 05:28:06;;;;;;;0.63;0.63;;;9.90;99.90;;;;;;5054728;28;20205;-89
2022/09/18 05:30:35;;;;;;;2.20;0.80;;;9.90;99.90;;;;;;5054718;28;20216;-89
2022/09/18 05:33:06;;;;;;;0.98;0.82;;;10.00;99.90;;;;;;5055314;28;20212;-90
2022/09/18 05:35:36;;;;;;;0.65;0.60;;;10.00;99.90;;;;;;5054583;28;20210;-89
2022/09/18 05:38:06;;;;;;;0.75;0.63;;;10.00;99.90;;;;;;5054764;28;20253;-89
2022/09/18 05:40:36;;;;;;;1.35;0.57;;;10.10;99.90;;;;;;5054515;28;20221;-89
2022/09/18 05:43:06;;;;;;;0.73;0.65;;;10.10;99.90;;;;;;5054523;28;20233;-89
2022/09/18 05:45:34;;;;;;;0.68;0.68;;;10.10;99.90;;;;;;5054590;28;20264;-89
2022/09/18 05:48:05;;;;;;;0.50;0.50;;;10.10;99.90;;;;;;5054551;28;20206;-89
2022/09/18 05:50:35;;;;;;;0.70;0.47;;;10.20;99.90;;;;;;5054535;28;20202;-90
2022/09/18 05:53:07;;;;;;;0.75;0.73;;;10.20;99.90;;;;;;5054375;28;20206;-89
2022/09/18 05:55:35;;;;;;;0.70;0.70;;;10.20;99.90;;;;;;5054545;28;20212;-90
2022/09/18 05:58:05;;;;;;;1.00;0.55;;;10.20;99.90;;;;;;5054248;28;20218;-89
2022/09/18 06:00:35;;;;;;;0.50;0.50;;;10.30;99.90;;;;;;5054126;28;20216;-89
2022/09/18 06:03:05;;;;;;;3.92;1.58;;;10.30;99.90;;;;;;5054311;28;20235;-89
2022/09/18 06:05:36;;;;;;;3.08;1.33;;;10.30;99.90;;;;;;5054380;28;20206;-89
2022/09/18 06:08:08;;;;;;;0.70;0.70;;;10.30;99.90;;;;;;5054102;28;20209;-89
2022/09/18 06:10:39;;;;;;;2.47;1.33;;;10.30;99.90;;;;;;5054172;28;20205;-89
2022/09/18 06:13:11;;;;;;;1.35;1.25;;;10.30;99.90;;;;;;5054042;28;20206;-89
2022/09/18 06:15:39;;;;;;;0.90;0.90;;;10.20;99.90;;;;;;5053869;28;20212;-89
2022/09/18 06:18:08;;;;;;;1.13;0.85;;;10.20;99.90;;;;;;5053716;28;20222;-89
2022/09/18 06:20:36;;;;;;;1.13;1.00;;;10.20;99.90;;;;;;5053694;28;20228;-89
2022/09/18 06:23:06;;;;;;;0.90;0.70;;;10.30;99.90;;;;;;5053926;28;20213;-88
2022/09/18 06:25:35;;;;;;;1.27;0.90;;;10.30;99.90;;;;;;5054345;28;20213;-89
2022/09/18 06:28:05;;;;;;;3.38;0.65;;;10.40;99.90;;;;;;5053776;28;20206;-89
2022/09/18 06:30:35;;;;;;;0.65;0.60;;;10.40;99.90;;;;;;5053584;28;20216;-89
2022/09/18 06:33:05;;;;;;;1.40;0.90;;;10.50;99.90;;;;;;5053615;28;20213;-89
2022/09/18 06:35:34;;;;;;;0.63;0.63;;;10.50;99.90;;;;;;5053860;28;20214;-89
2022/09/18 06:38:03;;;;;;;0.80;0.68;;;10.50;99.90;;;;;;5053752;28;20222;-89
2022/09/18 06:40:33;;;;;;;3.67;1.30;;;10.60;99.90;;;;;;5053404;28;20206;-88
2022/09/18 06:43:03;;;;;;;1.20;0.80;;;10.60;99.90;;;;;;5053629;28;20229;-89
2022/09/18 06:45:32;;;;;;;0.93;0.93;;;10.70;99.90;;;;;;5053881;28;20202;-89
2022/09/18 06:48:04;;;;;;;0.98;0.95;;;10.70;99.90;;;;;;5054998;28;20210;-89
2022/09/18 06:50:32;;;;;;;1.20;0.70;;;10.70;99.90;;;;;;5053709;28;20206;-88
2022/09/18 06:53:05;;;;;;;0.63;0.63;;;10.70;99.90;;;;;;5054175;28;20201;-88
2022/09/18 06:55:41;;;;;;;3.15;0.90;;;10.80;99.90;;;;;;5053726;28;20296;-89
2022/09/18 06:58:09;;;;;;;0.82;0.70;;;10.80;99.90;;;;;;5053235;28;20240;-90
2022/09/18 07:00:37;;;;;;;0.90;0.90;;;10.80;99.90;;;;;;5053209;28;20206;-90
2022/09/18 07:03:05;;;;;;;2.08;1.35;;;11.00;99.90;;;;;;5053151;28;20202;-89
2022/09/18 07:05:34;;;;;;;0.85;0.80;;;11.00;99.90;;;;;;5053264;28;20216;-89
2022/09/18 07:08:02;;;;;;;1.13;0.90;;;11.00;99.90;;;;;;5053312;28;20214;-88
2022/09/18 07:10:30;;;;;;;1.48;0.63;;;11.10;99.90;;;;;;5052967;28;20202;-89
2022/09/18 07:13:01;;;;;;;1.60;1.00;;;11.20;99.90;;;;;;5052709;28;20206;-89
2022/09/18 07:15:29;;;;;;;0.85;0.82;;;11.30;99.90;;;;;;5052994;28;20208;-88
2022/09/18 07:17:58;;;;;;;1.42;0.80;;;11.30;99.90;;;;;;5052704;28;20209;-87
2022/09/18 07:20:28;;;;;;;1.95;1.13;;;11.40;99.90;;;;;;5052876;28;20206;-89
2022/09/18 07:22:57;;;;;;;1.23;0.93;;;11.50;99.90;;;;;;5052968;28;20213;-89
2022/09/18 07:25:26;;;;;;;1.00;0.77;;;11.60;99.90;;;;;;5052755;28;20213;-89
2022/09/18 07:27:55;;;;;;;0.80;0.80;;;11.60;99.90;;;;;;5052900;28;20202;-88
2022/09/18 07:30:25;;;;;;;1.17;1.08;;;11.70;99.90;;;;;;5051992;28;20209;-88
2022/09/18 07:32:53;;;;;;;0.88;0.85;;;11.80;99.90;;;;;;5051932;28;20297;-88
2022/09/18 07:35:21;;;;;;;13.02;1.10;;;11.90;99.90;;;;;;5051934;28;20217;-88
2022/09/18 07:37:56;;;;;;;1.95;1.02;;;12.00;99.90;;;;;;5051326;28;20253;-88
2022/09/18 07:40:24;;;;;;;1.83;0.82;;;12.00;99.90;;;;;;5049441;28;20244;-88
2022/09/18 07:42:53;;;;;;;1.77;1.20;;;12.00;99.90;;;;;;5049683;28;20213;-88
2022/09/18 07:45:21;;;;;;;1.00;0.90;;;12.10;99.90;;;;;;5049845;28;20205;-88
2022/09/18 07:47:51;;;;;;;1.00;0.93;;;12.10;99.90;;;;;;5049479;28;20221;-88
2022/09/18 07:50:19;;;;;;;1.52;1.42;;;12.20;99.90;;;;;;5048890;28;20216;-88
2022/09/18 07:52:52;;;;;;;1.00;0.90;;;12.30;99.90;;;;;;5048999;28;20212;-88
2022/09/18 07:55:21;;;;;;;0.88;0.70;;;12.40;99.90;;;;;;5049614;28;20213;-88
2022/09/18 07:57:54;;;;;;;2.65;1.20;;;12.40;99.90;;;;;;5049004;28;20213;-88
2022/09/18 08:00:22;;;;;;;4.20;1.13;;;12.40;99.90;;;;;;5048503;28;20236;-88
2022/09/18 08:03:01;;;;;;;1.02;0.88;;;12.40;99.90;;;;;;5053047;28;20212;-88
2022/09/18 08:05:29;;;;;;;2.30;1.02;;;12.50;99.90;;;;;;5052885;28;20288;-88
2022/09/18 08:08:03;;;;;;;1.73;1.13;;;12.50;99.90;;;;;;5052617;28;20217;-88
2022/09/18 08:10:31;;;;;;;0.77;0.65;;;12.70;99.90;;;;;;5052931;28;20256;-88
2022/09/18 08:13:01;;;;;;;0.70;0.70;;;12.80;99.90;;;;;;5052695;28;20220;-88
2022/09/18 08:15:30;;;;;;;3.13;1.10;;;13.00;99.90;;;;;;5052575;28;20210;-88
2022/09/18 08:17:59;;;;;;;0.93;0.88;;;13.20;99.90;;;;;;5052899;28;20296;-88
2022/09/18 08:20:28;;;;;;;1.23;0.75;;;13.40;99.90;;;;;;5052165;28;20225;-89
2022/09/18 08:22:57;;;;;;;0.60;0.60;;;13.50;99.90;;;;;;5053079;28;20213;-88
2022/09/18 08:25:27;;;;;;;1.55;0.73;;;13.70;99.90;;;;;;5052811;28;20206;-89
2022/09/18 08:27:58;;;;;;;2.92;0.90;;;13.60;99.90;;;;;;5009895;28;1226276;-88
2022/09/18 08:30:26;;;;;;;0.43;0.43;;;13.50;99.90;;;;;;5054026;28;20210;-88
2022/09/18 08:32:59;;;;;;;0.75;0.75;;;13.70;99.90;;;;;;5054307;28;20213;-88
2022/09/18 08:35:28;;;;;;;1.13;0.90;;;13.70;99.90;;;;;;5054001;28;20213;-88
2022/09/18 08:37:56;;;;;;;1.85;0.77;;;13.80;99.90;;;;;;5054345;28;20225;-88
2022/09/18 08:40:36;;;;;;;0.82;0.82;;;14.30;99.90;;;;;;5053789;28;20213;-89
2022/09/18 08:43:11;;;;;;;0.70;0.70;;;14.70;99.90;;;;;;5053466;28;20213;-89
2022/09/18 08:45:52;;;;;;;0.73;0.73;;;15.30;99.90;;;;;;5053679;28;20209;-89
2022/09/18 08:48:25;;;;;;;0.77;0.77;;;15.80;99.90;;;;;;5053616;28;20222;-89
2022/09/18 08:50:59;;;;;;;0.80;0.75;;;16.10;99.90;;;;;;5053838;28;20213;-88
2022/09/18 08:53:32;;;;;;;0.85;0.85;;;15.80;99.90;;;;;;5053549;28;20218;-88
2022/09/18 08:56:01;;;;;;;1.40;1.25;;;15.90;99.90;;;;;;5053563;28;20301;-88
2022/09/18 08:58:34;;;;;;;0.63;0.63;;;15.90;99.90;;;;;;5053066;28;20233;-89
2022/09/18 09:01:07;;;;;;;9.90;1.33;;;15.80;99.90;;;;;;5053323;28;20225;-89
2022/09/18 09:03:49;;;;;;;3.35;1.00;;;15.70;99.90;;;;;;5053246;28;20222;-88
2022/09/18 09:06:32;;;;;;;1.50;0.77;;;15.90;99.90;;;;;;5054768;28;20212;-87
2022/09/18 09:09:33;;;;;;;0.95;0.65;;;15.90;99.90;;;;;;5055080;28;20226;-82
2022/09/18 09:12:08;;;;;;;0.70;0.70;;;15.50;99.90;;;;;;5009411;28;20267;-88
2022/09/18 09:15:00;;;;;;;0.60;0.60;;;15.40;99.90;;;;;;5058473;28;20193;-88
2022/09/18 09:17:39;;;;;;;0.40;0.40;;;15.30;99.90;;;;;;5051963;28;20201;-88
2022/09/18 09:20:20;;;;;;;0.73;0.73;;;15.00;99.90;;;;;;5055010;28;20220;-88
2022/09/18 09:22:56;;;;;;;0.43;0.43;;;14.80;99.90;;;;;;5035399;28;20304;-88
2022/09/18 09:25:30;;;;;;;0.55;0.55;;;14.80;99.90;;;;;;5055439;28;20212;-88
2022/09/18 09:28:05;;;;;;;0.80;0.80;;;14.90;99.90;;;;;;5055260;28;20201;-88
2022/09/18 09:30:36;;;;;;;0.88;0.80;;;15.20;99.90;;;;;;5054289;28;20208;-87
2022/09/18 09:33:16;;;;;;;1.13;0.50;;;15.80;99.90;;;;;;5054676;28;20216;-87
2022/09/18 09:35:49;;;;;;;0.40;0.40;;;16.20;99.90;;;;;;5054579;28;20294;-87
2022/09/18 09:38:32;;;;;;;2.53;0.88;;;16.30;99.90;;;;;;5054253;28;20218;-88
2022/09/18 09:41:07;;;;;;;1.20;0.70;;;16.00;99.90;;;;;;5054853;28;20226;-87
2022/09/18 09:43:41;;;;;;;2.55;0.55;;;15.70;99.90;;;;;;5055452;28;20205;-87
2022/09/18 09:46:18;;;;;;;0.77;0.75;;;15.90;99.90;;;;;;5055031;28;20204;-87
2022/09/18 09:48:54;;;;;;;0.40;0.40;;;15.80;99.90;;;;;;5055308;28;20226;-87
2022/09/18 09:51:30;;;;;;;0.55;0.55;;;15.80;99.90;;;;;;5054392;28;20210;-88
2022/09/18 09:54:01;;;;;;;0.77;0.77;;;15.70;99.90;;;;;;5054999;28;20204;-88
2022/09/18 09:56:36;;;;;;;1.08;0.68;;;16.00;99.90;;;;;;5054984;28;20208;-87
2022/09/18 09:59:15;;;;;;;0.60;0.60;;;16.10;99.90;;;;;;5055095;28;20236;-87
2022/09/18 10:01:49;;;;;;;0.93;0.85;;;16.10;99.90;;;;;;5053431;28;20228;-88
2022/09/18 10:04:26;;;;;;;0.50;0.50;;;15.80;99.90;;;;;;5054538;28;20216;-88
2022/09/18 10:07:00;;;;;;;1.48;0.65;;;15.40;99.90;;;;;;5054669;28;20208;-87
2022/09/18 10:09:38;;;;;;;0.47;0.47;;;15.90;99.90;;;;;;5054435;28;20222;-87
2022/09/18 10:12:18;;;;;;;0.52;0.52;;;16.00;99.90;;;;;;5054974;28;20201;-87
2022/09/18 10:14:49;;;;;;;0.57;0.57;;;16.50;99.90;;;;;;5054771;28;20220;-87
2022/09/18 10:17:19;;;;;;;0.73;0.73;;;16.90;99.90;;;;;;5054650;28;20210;-87
2022/09/18 10:19:49;;;;;;;0.85;0.85;;;16.90;99.90;;;;;;5054476;28;20222;-87
2022/09/18 10:22:22;;;;;;;0.35;0.32;;;17.10;99.90;;;;;;5054440;28;20209;-87
2022/09/18 10:24:56;;;;;;;0.20;0.20;;;17.20;99.90;;;;;;5053844;28;20200;-87
2022/09/18 10:27:24;;;;;;;0.77;0.70;;;17.00;99.90;;;;;;5054423;28;20220;-86
2022/09/18 10:29:53;;;;;;;3.05;0.60;;;16.70;99.90;;;;;;5054091;28;20229;-87
2022/09/18 10:32:35;;;;;;;1.67;0.47;;;16.80;99.90;;;;;;5054427;28;20198;-87
2022/09/18 10:35:42;;;;;;;0.68;0.68;;;16.70;99.90;;;;;;5054260;28;20204;-86
2022/09/18 10:38:33;;;;;;;0.85;0.60;;;16.90;99.90;;;;;;5051502;28;20205;-88
2022/09/18 10:41:30;;;;;;;0.60;0.60;;;16.60;99.90;;;;;;5054174;28;20221;-87
2022/09/18 10:44:05;;;;;;;0.60;0.60;;;16.20;99.90;;;;;;5053892;28;20216;-89
2022/09/18 10:46:36;;;;;;;1.05;0.93;;;16.00;99.90;;;;;;5053712;28;20261;-88
2022/09/18 10:49:18;;;;;;;0.50;0.50;;;15.80;99.90;;;;;;5053631;28;20229;-88
2022/09/18 10:51:47;;;;;;;1.00;0.77;;;15.50;99.90;;;;;;5053530;28;20202;-88
2022/09/18 10:54:21;;;;;;;0.70;0.70;;;15.40;99.90;;;;;;5053324;28;20210;-88
2022/09/18 10:56:50;;;;;;;1.75;1.65;;;15.10;99.90;;;;;;5053565;28;20233;-88
2022/09/18 10:59:34;;;;;;;1.67;1.58;;;15.00;99.90;;;;;;5053729;28;20224;-90
2022/09/18 11:02:06;;;;;;;0.88;0.68;;;15.00;99.90;;;;;;5051340;28;20210;-90
2022/09/18 11:04:34;;;;;;;0.80;0.80;;;15.00;99.90;;;;;;5053932;28;20204;-84
2022/09/18 11:07:06;;;;;;;0.50;0.50;;;14.80;99.90;;;;;;5053716;28;20217;-84
2022/09/18 11:09:39;;;;;;;9.40;1.02;;;14.50;99.90;;;;;;5052825;28;20244;-84
2022/09/18 11:12:17;;;;;;;0.70;0.70;;;14.00;99.90;;;;;;5053041;28;20205;-83
2022/09/18 11:14:49;;;;;;;1.50;1.17;;;13.60;99.90;;;;;;5053181;28;20216;-83
2022/09/18 11:17:37;;;;;;;0.90;0.75;;;13.60;99.90;;;;;;5053363;28;20213;-83
2022/09/18 11:20:07;;;;;;;1.00;0.85;;;13.70;99.90;;;;;;5052646;28;20229;-83
2022/09/18 11:22:40;;;;;;;0.80;0.80;;;13.70;99.90;;;;;;5052933;28;20210;-84
2022/09/18 11:25:22;;;;;;;1.30;1.20;;;13.70;99.90;;;;;;5052849;28;20210;-84
2022/09/18 11:27:52;;;;;;;0.73;0.73;;;13.70;99.90;;;;;;5052790;28;20216;-84
2022/09/18 11:30:24;;;;;;;0.60;0.60;;;13.70;99.90;;;;;;5052675;28;20208;-84
2022/09/18 11:32:54;;;;;;;0.50;0.50;;;13.80;99.90;;;;;;5052664;28;20213;-84
2022/09/18 11:35:23;;;;;;;0.77;0.77;;;13.90;99.90;;;;;;5052630;28;20228;-84
2022/09/18 11:37:54;;;;;;;0.50;0.50;;;14.10;99.90;;;;;;5052572;28;20210;-84
2022/09/18 11:40:27;;;;;;;0.77;0.75;;;14.00;99.90;;;;;;5052486;28;20209;-84
2022/09/18 11:42:57;;;;;;;0.73;0.73;;;14.10;99.90;;;;;;5052890;28;20200;-84
2022/09/18 11:45:47;;;;;;;1.00;1.00;;;13.80;99.90;;;;;;5052638;28;20206;-83
2022/09/18 11:48:24;;;;;;;0.75;0.75;;;13.10;99.90;;;;;;5039122;28;20222;-83
2022/09/18 11:50:56;;;;;;;0.85;0.57;;;12.40;99.90;;;;;;5049456;28;20198;-83
2022/09/18 11:53:28;;;;;;;0.68;0.68;;;11.80;99.90;;;;;;5050112;28;20221;-83
2022/09/18 11:56:04;;;;;;;0.50;0.50;;;12.00;99.90;;;;;;5050574;28;20217;-83
2022/09/18 11:58:36;;;;;;;0.90;0.90;;;12.60;99.90;;;;;;5049927;28;20236;-83
2022/09/18 12:01:14;;;;;;;1.00;1.00;;;13.50;99.90;;;;;;5050350;28;20305;-83
2022/09/18 12:03:48;;;;;;;3.30;0.98;;;14.50;99.90;;;;;;5050315;28;20225;-84
2022/09/18 12:06:27;;;;;;;0.93;0.93;;;15.50;99.90;;;;;;5050073;28;20210;-84
2022/09/18 12:09:01;;;;;;;0.95;0.90;;;16.10;99.90;;;;;;5049989;28;20252;-83
2022/09/18 12:11:37;;;;;;;0.70;0.70;;;16.20;99.90;;;;;;5050838;28;20212;-83
2022/09/18 12:14:14;;;;;;;0.65;0.60;;;16.40;99.90;;;;;;5050089;28;20213;-83
2022/09/18 12:16:49;;;;;;;1.30;1.20;;;16.40;99.90;;;;;;5049982;28;20221;-83
2022/09/18 12:19:23;;;;;;;0.75;0.75;;;16.70;99.90;;;;;;5049780;28;20225;-83
2022/09/18 12:21:57;;;;;;;0.60;0.43;;;16.90;99.90;;;;;;5049923;28;20221;-83
2022/09/18 12:24:26;;;;;;;1.20;1.00;;;17.20;99.90;;;;;;5050105;28;20206;-83
2022/09/18 12:27:07;;;;;;;0.40;0.40;;;17.70;99.90;;;;;;5049936;28;20217;-84
2022/09/18 12:29:54;;;;;;;0.60;0.60;;;17.90;99.90;;;;;;5049648;28;20241;-83
2022/09/18 12:32:32;;;;;;;1.35;0.70;;;17.30;99.90;;;;;;5050010;28;20214;-83
2022/09/18 12:35:09;;;;;;;0.40;0.40;;;16.80;99.90;;;;;;5050024;28;20214;-83
2022/09/18 12:37:48;;;;;;;1.65;0.90;;;16.50;99.90;;;;;;5050180;28;20220;-83
2022/09/18 12:40:45;;;;;;;0.32;0.30;;;16.40;99.90;;;;;;5050177;28;20237;-83
2022/09/18 12:43:49;;;;;;;2.40;0.90;;;15.60;99.90;;;;;;5049553;28;20238;-83
2022/09/18 12:46:44;;;;;;;1.42;1.02;;;14.80;99.90;;;;;;5043345;28;20213;-85
2022/09/18 12:49:46;;;;;;;0.85;0.85;;;14.10;99.90;;;;;;5053253;28;20229;-83
2022/09/18 12:52:26;;;;;;;0.75;0.75;;;13.90;99.90;;;;;;5007099;28;20209;-83
2022/09/18 12:55:28;;;;;;;0.88;0.88;;;13.60;99.90;;;;;;5053566;28;20206;-83
2022/09/18 12:58:10;;;;;;;0.93;0.70;;;13.50;99.90;;;;;;5053349;28;20216;-82
2022/09/18 13:00:44;;;;;;;1.27;0.73;;;13.50;99.90;;;;;;5053178;28;20206;-83
2022/09/18 13:03:18;;;;;;;0.60;0.60;;;13.60;99.90;;;;;;5054787;28;20229;-83
2022/09/18 13:05:50;;;;;;;0.77;0.77;;;13.70;99.90;;;;;;5055548;28;20209;-83
2022/09/18 13:08:22;;;;;;;0.88;0.88;;;13.90;99.90;;;;;;5055468;28;20232;-83
2022/09/18 13:10:56;;;;;;;1.65;1.10;;;14.00;99.90;;;;;;5055251;28;20209;-83
2022/09/18 13:13:33;;;;;;;0.90;0.90;;;14.00;99.90;;;;;;5054998;28;20209;-83
2022/09/18 13:16:07;;;;;;;2.38;0.93;;;13.80;99.90;;;;;;5055441;28;20217;-83
2022/09/18 13:18:40;;;;;;;1.00;0.80;;;13.60;99.90;;;;;;5054746;28;20229;-82
2022/09/18 13:21:18;;;;;;;0.65;0.65;;;13.70;99.90;;;;;;5055384;28;20210;-83